Terminal Aerodrome Forecast
Issued by NWS King Salmon, AK

Home | Current Version | Previous Version | Text Only | Print | Product List | Glossary On
Versions: 1 2 3 4 5 6 7 8 9 10 11 12 13 14 15 16 17
000
FTAK31 PANC 241151
TAFAKN
TAF
PAKN 241151Z 2412/2512 17008KT 3SM -RA BR SCT005 OVC015
      TEMPO 2412/2414 2SM -SN BKN005
     FM241400 19005KT 2SM -SNRA BR OVC006
     FM242200 20005KT P6SM SCT008 BKN040=

USA.gov is the U.S. government's official web portal to all federal, state and local government web resources and services.